TAF KSYR
AMD KSYR 090836Z 0909/1006 28007G14KT 6SM -SHSN BR FEW025 BKN040 TEMPO 0909/0910 2SM -SHSN BR FM091100 29008KT P6SM BKN040 FM092000 VRB03KT P6SM BKN080 FM100000 13007KT P6SM BKN080=
METAR KSYR
WC KSYR
WS KSYR
WV KSYR